Time;durP1;ratioP1;P1;durP2;ratioP2;P2;SDS_P1;SDS_P2;PMS_P1;PMS_P2;Temp;Humidity;BMP_temperature;BMP_pressure;BME280_temperature;BME280_humidity;BME280_pressure;Samples;Min_cycle;Max_cycle;Signal;HPM_P1;HPM_P2
2022/08/18 00:01:53;;;;;;;40.97;36.20;;;19.20;99.90;;;;;;5085831;28;20103;-79
2022/08/18 00:04:19;;;;;;;53.38;46.92;;;19.20;99.90;;;;;;5064266;28;20036;-80
2022/08/18 00:06:44;;;;;;;62.15;51.95;;;19.20;99.90;;;;;;5052311;28;20106;-80
2022/08/18 00:09:11;;;;;;;66.28;56.40;;;19.10;99.90;;;;;;5066313;28;20311;-79
2022/08/18 00:11:42;;;;;;;77.60;60.78;;;19.10;99.90;;;;;;5068302;28;20063;-79
2022/08/18 00:14:12;;;;;;;61.30;51.83;;;19.20;99.90;;;;;;5061491;28;20469;-80
2022/08/18 00:16:38;;;;;;;48.20;41.30;;;19.10;99.90;;;;;;5069024;28;20032;-80
2022/08/18 00:19:03;;;;;;;42.83;36.05;;;19.10;99.90;;;;;;5069583;28;20021;-79
2022/08/18 00:21:29;;;;;;;36.58;32.22;;;19.10;99.90;;;;;;5068017;28;20035;-79
2022/08/18 00:23:55;;;;;;;30.60;27.25;;;19.10;99.90;;;;;;5070150;28;20395;-79
2022/08/18 00:26:21;;;;;;;35.72;30.15;;;19.10;99.90;;;;;;5083822;28;20037;-79
2022/08/18 00:28:47;;;;;;;29.10;25.75;;;19.10;99.90;;;;;;5052021;28;20033;-79
2022/08/18 00:31:12;;;;;;;30.52;26.13;;;19.20;99.90;;;;;;5068344;28;20043;-80
2022/08/18 00:33:38;;;;;;;26.35;23.58;;;19.20;99.90;;;;;;5067406;28;20032;-80
2022/08/18 00:36:04;;;;;;;25.00;22.10;;;19.20;99.90;;;;;;5068745;28;20020;-79
2022/08/18 00:38:29;;;;;;;24.70;21.67;;;19.20;99.90;;;;;;5069430;28;20025;-79
2022/08/18 00:40:55;;;;;;;20.58;17.45;;;19.20;99.90;;;;;;5063471;28;20392;-79
2022/08/18 00:43:28;;;;;;;20.25;16.80;;;19.20;99.90;;;;;;5084622;28;20499;-79
2022/08/18 00:45:54;;;;;;;18.17;16.27;;;19.20;99.90;;;;;;5069224;28;20075;-79
2022/08/18 00:48:19;;;;;;;28.23;25.40;;;19.20;99.90;;;;;;5065065;28;20056;-79
2022/08/18 00:50:52;;;;;;;28.50;25.70;;;19.20;99.90;;;;;;5067551;28;20032;-79
2022/08/18 00:53:34;;;;;;;24.60;22.13;;;19.10;99.90;;;;;;5067935;28;20039;-79
2022/08/18 00:56:07;;;;;;;21.25;19.05;;;19.10;99.90;;;;;;5069182;28;20028;-79
2022/08/18 00:58:44;;;;;;;16.13;14.63;;;19.10;99.90;;;;;;5063961;28;20070;-79
2022/08/18 01:01:12;;;;;;;20.08;18.08;;;19.10;99.90;;;;;;5067616;28;20044;-79
2022/08/18 01:03:39;;;;;;;20.08;18.08;;;19.10;99.90;;;;;;5066103;28;20032;-79
2022/08/18 01:06:16;;;;;;;20.73;18.55;;;19.10;99.90;;;;;;5066640;28;20052;-79
2022/08/18 01:08:42;;;;;;;25.50;22.98;;;19.00;99.90;;;;;;5067625;28;21980;-79
2022/08/18 01:11:09;;;;;;;17.40;15.70;;;19.00;99.90;;;;;;5068096;28;20032;-79
2022/08/18 01:13:40;;;;;;;15.82;14.32;;;19.10;99.90;;;;;;5069307;28;20476;-79
2022/08/18 01:21:51;;;;;;;14.52;13.05;;;19.10;99.90;;;;;;5066819;28;20086;-79
2022/08/18 01:25:58;;;;;;;21.27;19.13;;;19.10;99.90;;;;;;5066711;28;20052;-80
2022/08/18 01:27:16;;;;;;;18.52;16.60;;;19.10;99.90;;;;;;5067928;28;20492;-79
2022/08/18 01:29:47;;;;;;;22.70;20.08;;;19.00;99.90;;;;;;5066609;28;20449;-79
2022/08/18 01:32:21;;;;;;;24.00;21.52;;;19.00;99.90;;;;;;5064306;28;20484;-79
2022/08/18 01:34:48;;;;;;;23.92;21.42;;;18.90;99.90;;;;;;5063133;28;20101;-79
2022/08/18 01:37:20;;;;;;;22.70;20.30;;;18.90;99.90;;;;;;5063727;28;20035;-80
2022/08/18 01:39:46;;;;;;;18.52;16.20;;;18.90;99.90;;;;;;5068310;28;20051;-79
2022/08/18 01:42:15;;;;;;;16.75;14.98;;;18.90;99.90;;;;;;5064686;28;20029;-79
2022/08/18 01:44:43;;;;;;;22.30;19.73;;;18.90;99.90;;;;;;5050138;28;20024;-78
2022/08/18 01:47:11;;;;;;;19.35;17.45;;;18.90;99.90;;;;;;5062481;28;20038;-79
2022/08/18 01:49:41;;;;;;;21.80;19.50;;;18.90;99.90;;;;;;5067528;28;20029;-79
2022/08/18 01:52:09;;;;;;;18.05;16.30;;;18.90;99.90;;;;;;5061919;28;20480;-79
2022/08/18 01:54:35;;;;;;;20.95;18.75;;;18.80;99.90;;;;;;5063860;28;20111;-80
2022/08/18 01:57:00;;;;;;;26.20;23.20;;;18.90;99.90;;;;;;5062665;28;20112;-79
2022/08/18 01:59:26;;;;;;;23.58;20.42;;;18.80;99.90;;;;;;5049815;28;20056;-79
2022/08/18 02:01:54;;;;;;;19.23;17.27;;;18.90;99.90;;;;;;5049483;28;20055;-79
2022/08/18 02:04:26;;;;;;;17.83;15.93;;;18.90;99.90;;;;;;5067526;28;20480;-79
2022/08/18 02:06:52;;;;;;;24.60;20.67;;;18.90;99.90;;;;;;5080207;28;20041;-80
2022/08/18 02:09:17;;;;;;;22.88;20.60;;;18.90;99.90;;;;;;5048833;28;20066;-79
2022/08/18 02:11:43;;;;;;;24.75;22.15;;;18.80;99.90;;;;;;5067586;28;20043;-79
2022/08/18 02:14:08;;;;;;;24.85;22.40;;;18.80;99.90;;;;;;5062706;28;20032;-80
2022/08/18 02:16:34;;;;;;;22.33;20.02;;;18.70;99.90;;;;;;5062195;28;20258;-79
2022/08/18 02:19:00;;;;;;;20.30;18.20;;;18.70;99.90;;;;;;5066684;28;20548;-79
2022/08/18 02:21:26;;;;;;;20.42;18.20;;;18.70;99.90;;;;;;5082614;28;20396;-79
2022/08/18 02:23:51;;;;;;;18.90;16.00;;;18.70;99.90;;;;;;5067537;28;20107;-80
2022/08/18 02:26:17;;;;;;;18.83;16.85;;;18.70;99.90;;;;;;5064408;28;20048;-79
2022/08/18 02:28:44;;;;;;;20.10;18.00;;;18.70;99.90;;;;;;5066344;28;20056;-79
2022/08/18 02:31:13;;;;;;;21.63;19.35;;;18.60;99.90;;;;;;5067109;28;20039;-79
2022/08/18 02:33:39;;;;;;;16.17;14.63;;;18.60;99.90;;;;;;5081021;28;20107;-79
2022/08/18 02:36:06;;;;;;;18.65;16.65;;;18.60;99.90;;;;;;5065572;28;20314;-79
2022/08/18 02:38:32;;;;;;;20.27;18.15;;;18.60;99.90;;;;;;5047462;28;20082;-80
2022/08/18 02:41:01;;;;;;;26.35;23.23;;;18.60;99.90;;;;;;5066459;28;20125;-80
2022/08/18 02:43:27;;;;;;;28.13;25.23;;;18.50;99.90;;;;;;5049914;28;20382;-80
2022/08/18 02:45:54;;;;;;;27.48;24.30;;;18.60;99.90;;;;;;5066547;28;20128;-79
2022/08/18 02:48:35;;;;;;;27.25;24.10;;;18.50;99.90;;;;;;5049167;28;20052;-79
2022/08/18 02:51:00;;;;;;;22.42;20.00;;;18.50;99.90;;;;;;5064712;28;20029;-80
2022/08/18 02:53:27;;;;;;;16.65;14.20;;;18.50;99.90;;;;;;5047192;28;20128;-80
2022/08/18 02:55:54;;;;;;;21.88;19.70;;;18.50;99.90;;;;;;5066027;28;20029;-79
2022/08/18 02:58:20;;;;;;;19.50;16.17;;;18.50;99.90;;;;;;5062511;28;20033;-79
2022/08/18 03:00:46;;;;;;;16.23;14.52;;;18.50;99.90;;;;;;5061116;28;20032;-79
2022/08/18 03:03:12;;;;;;;22.67;20.30;;;18.50;99.90;;;;;;5060402;28;20093;-80
2022/08/18 03:05:38;;;;;;;22.77;18.05;;;18.40;99.90;;;;;;5065595;28;20573;-79
2022/08/18 03:08:04;;;;;;;22.30;18.38;;;18.40;99.90;;;;;;5065519;28;20020;-79
2022/08/18 03:10:30;;;;;;;19.55;16.60;;;18.50;99.90;;;;;;5066206;28;20044;-80
2022/08/18 03:12:56;;;;;;;20.35;18.00;;;18.40;99.90;;;;;;5063708;28;20021;-79
2022/08/18 03:15:22;;;;;;;19.05;17.08;;;18.40;99.90;;;;;;5067176;28;20035;-80
2022/08/18 03:17:48;;;;;;;18.90;17.00;;;18.30;99.90;;;;;;5047094;28;20026;-80
2022/08/18 03:20:13;;;;;;;20.67;17.83;;;18.30;99.90;;;;;;5065303;28;20039;-80
2022/08/18 03:22:39;;;;;;;18.98;16.48;;;18.30;99.90;;;;;;5066373;28;20028;-80
2022/08/18 03:25:05;;;;;;;20.95;17.50;;;18.20;99.90;;;;;;5065050;28;20031;-81
2022/08/18 03:27:30;;;;;;;17.88;15.90;;;18.20;99.90;;;;;;5081809;28;20230;-79
2022/08/18 03:29:56;;;;;;;18.67;16.05;;;18.20;99.90;;;;;;5061430;28;20078;-80
2022/08/18 03:32:22;;;;;;;22.42;17.23;;;18.20;99.90;;;;;;5065754;28;20536;-81
2022/08/18 03:34:47;;;;;;;18.65;16.67;;;18.10;99.90;;;;;;5060807;28;20512;-80
2022/08/18 03:37:16;;;;;;;20.35;15.82;;;18.10;99.90;;;;;;5060835;28;20039;-80
2022/08/18 03:39:42;;;;;;;20.42;18.20;;;18.20;99.90;;;;;;5051228;28;20031;-80
2022/08/18 03:42:08;;;;;;;18.45;16.45;;;18.20;99.90;;;;;;5070206;28;20045;-79
2022/08/18 03:44:37;;;;;;;17.80;15.05;;;18.20;99.90;;;;;;5070748;28;20031;-79
2022/08/18 03:47:07;;;;;;;22.20;18.45;;;18.20;99.90;;;;;;5069436;28;20053;-81
2022/08/18 03:49:33;;;;;;;;;;;18.10;99.90;;;;;;5052485;28;20052;-80
2022/08/18 03:52:01;;;;;;;20.75;17.98;;;18.10;99.90;;;;;;5085615;28;19958;-80
2022/08/18 03:54:28;;;;;;;20.83;16.48;;;18.10;99.90;;;;;;5085763;28;20128;-80
2022/08/18 03:56:54;;;;;;;19.30;17.25;;;18.00;99.90;;;;;;5070184;28;20423;-80
2022/08/18 03:59:23;;;;;;;21.02;18.92;;;18.00;99.90;;;;;;5051565;28;20414;-80
2022/08/18 04:01:51;;;;;;;19.50;16.35;;;18.00;99.90;;;;;;5068187;28;20530;-80
2022/08/18 04:04:19;;;;;;;18.42;16.27;;;18.00;99.90;;;;;;5051692;28;20507;-80
2022/08/18 04:06:52;;;;;;;21.50;18.20;;;18.00;99.90;;;;;;5069088;28;20123;-80
2022/08/18 04:09:19;;;;;;;20.17;17.77;;;18.00;99.90;;;;;;5065613;28;20089;-80
2022/08/18 04:11:46;;;;;;;20.17;17.98;;;18.00;99.90;;;;;;5051800;28;20441;-81
2022/08/18 04:14:14;;;;;;;18.10;15.93;;;18.00;99.90;;;;;;5064877;28;20120;-80
2022/08/18 04:16:40;;;;;;;16.88;15.10;;;18.00;99.90;;;;;;5051547;28;20024;-79
2022/08/18 04:19:07;;;;;;;14.85;12.60;;;18.00;99.90;;;;;;5069296;28;20108;-80
2022/08/18 04:21:36;;;;;;;11.75;10.52;;;18.00;99.90;;;;;;5069373;28;20034;-79
2022/08/18 04:24:04;;;;;;;15.02;13.35;;;18.10;99.90;;;;;;5069571;28;20028;-80
2022/08/18 04:26:36;;;;;;;15.50;13.93;;;18.10;99.90;;;;;;5064627;28;20034;-79
2022/08/18 04:29:02;;;;;;;13.85;12.45;;;18.10;99.90;;;;;;5069549;28;20032;-80
2022/08/18 04:31:29;;;;;;;10.70;9.60;;;18.10;99.90;;;;;;5051364;28;20436;-80
2022/08/18 04:33:57;;;;;;;10.88;9.05;;;18.10;99.90;;;;;;5068484;28;20423;-80
2022/08/18 04:36:24;;;;;;;15.60;13.60;;;18.20;99.90;;;;;;5068464;28;20028;-79
2022/08/18 04:38:49;;;;;;;13.45;11.60;;;18.20;99.90;;;;;;5067698;28;20435;-80
2022/08/18 04:41:15;;;;;;;14.73;12.35;;;18.10;99.90;;;;;;5068192;28;20049;-79
2022/08/18 04:43:41;;;;;;;15.88;13.80;;;18.20;99.90;;;;;;5084515;28;20704;-80
2022/08/18 04:46:07;;;;;;;13.43;11.10;;;18.20;99.90;;;;;;5067277;28;20328;-79
2022/08/18 04:48:36;;;;;;;12.55;11.25;;;18.20;99.90;;;;;;5067199;28;20020;-80
2022/08/18 04:51:05;;;;;;;11.37;10.13;;;18.20;99.90;;;;;;5068944;28;20404;-79
2022/08/18 04:53:45;;;;;;;12.85;11.55;;;18.30;99.90;;;;;;5069273;28;20032;-79
2022/08/18 04:56:25;;;;;;;12.98;11.02;;;18.30;99.90;;;;;;5063547;28;20103;-79
2022/08/18 04:58:57;;;;;;;14.20;12.82;;;18.30;99.90;;;;;;5064928;28;20043;-79
2022/08/18 05:01:26;;;;;;;11.52;10.32;;;18.30;99.90;;;;;;5060099;28;20087;-78
2022/08/18 05:03:53;;;;;;;15.60;12.05;;;18.30;99.90;;;;;;5068146;28;20035;-79
2022/08/18 05:06:24;;;;;;;14.27;12.30;;;18.30;99.90;;;;;;5068906;28;20102;-78
2022/08/18 05:08:53;;;;;;;11.02;9.93;;;18.30;99.90;;;;;;5068099;28;20044;-78
2022/08/18 05:11:20;;;;;;;11.50;10.23;;;18.40;99.90;;;;;;5063661;28;20047;-78
2022/08/18 05:13:46;;;;;;;9.27;7.95;;;18.40;99.90;;;;;;5050512;28;20024;-78
2022/08/18 05:16:14;;;;;;;10.68;9.55;;;18.40;99.90;;;;;;5065776;28;20048;-78
2022/08/18 05:18:39;;;;;;;10.23;9.23;;;18.40;99.90;;;;;;5063279;28;20101;-79
2022/08/18 05:21:14;;;;;;;13.20;9.02;;;18.50;99.90;;;;;;5065646;28;20032;-78
2022/08/18 05:23:47;;;;;;;13.65;11.52;;;18.50;99.90;;;;;;5067748;28;20047;-78
2022/08/18 05:26:14;;;;;;;15.40;10.73;;;18.50;99.90;;;;;;5047543;28;20036;-78
2022/08/18 05:28:41;;;;;;;13.02;10.02;;;18.50;99.90;;;;;;5065387;28;20404;-79
2022/08/18 05:31:15;;;;;;;13.18;10.15;;;18.60;99.90;;;;;;5066884;28;20034;-77
2022/08/18 05:33:42;;;;;;;8.30;7.45;;;18.60;99.90;;;;;;5066044;28;20031;-78
2022/08/18 05:36:52;;;;;;;7.57;6.45;;;18.60;99.90;;;;;;5048892;28;20104;-78
2022/08/18 05:39:18;;;;;;;8.90;7.95;;;18.70;99.90;;;;;;5020694;28;21949;-78
2022/08/18 05:41:50;;;;;;;11.75;7.65;;;18.70;99.90;;;;;;5068187;28;20284;-78
2022/08/18 05:44:26;;;;;;;8.60;7.10;;;18.70;99.90;;;;;;5080930;28;20082;-78
2022/08/18 05:46:58;;;;;;;7.63;6.75;;;18.80;99.90;;;;;;5061388;28;20401;-78
2022/08/18 05:49:26;;;;;;;5.95;5.35;;;18.80;99.90;;;;;;5064519;28;20135;-78
2022/08/18 05:51:57;;;;;;;6.63;6.03;;;18.90;99.90;;;;;;5061342;28;20494;-78
2022/08/18 05:57:17;;;;;;;9.32;7.32;;;18.80;99.90;;;;;;5060086;28;20117;-78
2022/08/18 05:59:44;;;;;;;12.63;9.38;;;18.80;99.90;;;;;;5067392;28;20104;-79
2022/08/18 06:02:29;;;;;;;11.77;10.52;;;18.80;99.90;;;;;;5060187;28;20051;-79
2022/08/18 06:05:10;;;;;;;13.48;10.23;;;18.80;99.90;;;;;;5060004;28;20024;-79
2022/08/18 06:07:43;;;;;;;13.85;11.55;;;18.80;99.90;;;;;;5068567;28;20024;-79
2022/08/18 06:10:10;;;;;;;14.40;12.18;;;18.80;99.90;;;;;;5080058;28;20063;-78
2022/08/18 06:12:43;;;;;;;14.85;13.35;;;18.90;99.90;;;;;;5066739;28;20024;-79
2022/08/18 06:15:27;;;;;;;13.25;11.38;;;18.90;99.90;;;;;;5044969;28;20043;-79
2022/08/18 06:18:04;;;;;;;11.70;10.38;;;18.80;99.90;;;;;;5061630;28;20157;-79
2022/08/18 06:21:05;;;;;;;16.15;13.27;;;18.90;99.90;;;;;;5044357;28;20374;-78
2022/08/18 06:24:27;;;;;;;14.88;11.20;;;18.80;99.90;;;;;;5061384;28;20119;-79
2022/08/18 06:27:12;;;;;;;12.23;10.30;;;18.70;99.90;;;;;;5003403;28;20110;-79
2022/08/18 06:29:49;;;;;;;10.90;8.65;;;18.80;99.90;;;;;;4987802;28;20051;-78
2022/08/18 06:32:41;;;;;;;9.43;8.40;;;19.00;99.90;;;;;;4988648;28;20053;-78
2022/08/18 06:35:13;;;;;;;10.00;7.22;;;19.10;99.90;;;;;;4985698;28;20041;-78
2022/08/18 06:40:36;;;;;;;6.88;6.13;;;19.40;99.90;;;;;;5004350;28;20097;-78
2022/08/18 06:43:06;;;;;;;7.82;6.80;;;19.60;99.90;;;;;;4988185;28;20029;-78
2022/08/18 06:45:36;;;;;;;8.88;7.22;;;19.70;99.90;;;;;;5003997;28;20518;-77
2022/08/18 06:48:31;;;;;;;11.75;10.25;;;19.70;99.90;;;;;;5003959;28;20120;-78
2022/08/18 06:51:00;;;;;;;11.13;9.13;;;19.70;99.90;;;;;;4971486;28;20034;-78
2022/08/18 06:53:51;;;;;;;12.27;10.13;;;19.70;99.90;;;;;;5004710;28;20042;-79
2022/08/18 06:56:33;;;;;;;10.00;8.25;;;19.70;99.90;;;;;;4989049;28;20100;-78
2022/08/18 06:59:22;;;;;;;9.88;8.88;;;20.10;99.90;;;;;;5064640;28;20542;-78
2022/08/18 07:01:52;;;;;;;11.32;9.10;;;20.20;99.90;;;;;;5061695;28;20485;-80
2022/08/18 07:04:55;;;;;;;9.80;7.95;;;20.50;99.90;;;;;;5060938;28;20492;-78
2022/08/18 07:07:39;;;;;;;8.57;7.20;;;20.40;99.90;;;;;;5047905;28;20036;-78
2022/08/18 07:10:33;;;;;;;5.78;5.28;;;20.70;99.90;;;;;;5060032;28;20028;-78
2022/08/18 07:13:28;;;;;;;11.43;9.15;;;20.60;99.90;;;;;;5043620;28;20028;-78
2022/08/18 07:16:15;;;;;;;9.57;8.32;;;20.40;99.90;;;;;;5049101;28;20115;-78
2022/08/18 07:18:42;;;;;;;9.80;7.00;;;20.30;99.90;;;;;;5070436;28;20024;-79
2022/08/18 07:21:08;;;;;;;9.88;7.90;;;20.30;99.90;;;;;;5064225;28;20043;-79
2022/08/18 07:23:38;;;;;;;11.48;8.57;;;20.20;99.90;;;;;;5069642;28;20028;-79
2022/08/18 07:26:16;;;;;;;12.02;8.85;;;20.00;99.90;;;;;;5068839;28;20132;-78
2022/08/18 07:28:48;;;;;;;8.50;7.65;;;20.10;99.90;;;;;;5061965;28;20034;-79
2022/08/18 07:31:47;;;;;;;10.82;9.88;;;20.50;99.90;;;;;;5067894;28;20028;-78
2022/08/18 07:34:19;;;;;;;11.45;8.60;;;20.70;99.90;;;;;;5068666;28;20499;-78
2022/08/18 07:37:04;;;;;;;8.45;7.43;;;21.00;99.90;;;;;;5046913;28;20064;-79
2022/08/18 07:39:42;;;;;;;7.93;5.07;;;21.30;99.90;;;;;;5063751;28;20496;-78
2022/08/18 07:42:26;;;;;;;7.80;7.07;;;21.60;99.90;;;;;;5045360;28;20047;-80
2022/08/18 07:45:08;;;;;;;4.82;4.18;;;21.60;99.90;;;;;;5069537;28;20040;-77
2022/08/18 07:48:03;;;;;;;3.95;3.55;;;22.20;99.90;;;;;;5066960;28;20021;-80
2022/08/18 07:50:37;;;;;;;5.40;3.08;;;22.60;99.90;;;;;;5070058;28;20036;-78
2022/08/18 07:53:11;;;;;;;3.13;2.70;;;22.90;99.90;;;;;;5084419;28;20064;-78
2022/08/18 07:55:40;;;;;;;5.38;4.68;;;23.30;99.90;;;;;;5065284;28;20376;-78
2022/08/18 07:58:27;;;;;;;3.20;2.40;;;22.80;99.90;;;;;;5065597;28;20024;-78
2022/08/18 08:01:06;;;;;;;3.80;2.63;;;23.20;99.90;;;;;;5069744;28;20045;-78
2022/08/18 08:03:52;;;;;;;2.28;1.25;;;23.10;99.90;;;;;;5064856;28;20055;-78
2022/08/18 08:06:32;;;;;;;4.60;2.53;;;23.20;99.90;;;;;;5068801;28;20146;-78
2022/08/18 08:09:09;;;;;;;3.35;2.75;;;23.50;99.90;;;;;;5065906;28;20020;-79
2022/08/18 08:11:46;;;;;;;3.80;3.35;;;23.50;99.90;;;;;;5066787;28;20109;-78
2022/08/18 08:14:41;;;;;;;5.38;3.75;;;23.60;99.90;;;;;;5058682;28;20944;-78
2022/08/18 08:17:22;;;;;;;3.67;3.03;;;23.40;99.90;;;;;;5059300;28;20029;-78
2022/08/18 08:19:57;;;;;;;5.47;4.93;;;23.50;99.90;;;;;;5066664;28;20732;-79
2022/08/18 08:22:28;;;;;;;6.15;3.50;;;22.60;99.90;;;;;;5039877;28;20393;-78
2022/08/18 08:25:29;;;;;;;7.70;3.97;;;22.80;99.90;;;;;;5037250;28;20063;-79
2022/08/18 08:28:06;;;;;;;5.00;4.15;;;22.90;99.90;;;;;;5066043;28;20090;-78
2022/08/18 08:30:37;;;;;;;4.57;3.20;;;22.80;99.90;;;;;;5063415;28;20431;-78
2022/08/18 08:33:29;;;;;;;5.13;3.33;;;23.00;99.90;;;;;;5064189;28;20151;-78
2022/08/18 08:36:10;;;;;;;4.97;3.80;;;22.70;99.90;;;;;;5063387;28;20074;-79
2022/08/18 08:38:43;;;;;;;5.93;4.40;;;22.30;99.90;;;;;;5056443;28;20120;-78
2022/08/18 08:41:25;;;;;;;5.28;4.32;;;22.00;99.90;;;;;;5077425;28;20109;-80
2022/08/18 08:44:10;;;;;;;5.07;4.10;;;22.10;99.90;;;;;;5071691;28;20384;-79
2022/08/18 08:47:03;;;;;;;4.80;3.25;;;22.20;99.90;;;;;;5059131;28;20056;-77
2022/08/18 08:49:45;;;;;;;5.30;2.78;;;22.00;99.90;;;;;;5073269;28;20111;-78
2022/08/18 08:52:25;;;;;;;3.35;2.88;;;22.20;99.90;;;;;;5074798;28;20039;-78
2022/08/18 08:54:59;;;;;;;5.32;4.25;;;22.00;99.90;;;;;;5073887;28;20089;-79
2022/08/18 08:57:38;;;;;;;4.85;4.10;;;22.00;99.90;;;;;;5064299;28;20086;-78
2022/08/18 09:00:08;;;;;;;3.90;2.72;;;22.10;99.90;;;;;;5072127;28;20041;-79
2022/08/18 09:02:52;;;;;;;3.95;2.70;;;22.20;99.90;;;;;;5072506;28;20063;-80
2022/08/18 09:05:28;;;;;;;4.70;2.65;;;22.20;99.90;;;;;;5074728;28;20039;-78
2022/08/18 09:08:16;;;;;;;2.42;1.38;;;22.30;99.90;;;;;;5062715;28;20381;-77
2022/08/18 09:11:01;;;;;;;5.60;2.30;;;23.10;99.90;;;;;;5054960;28;20556;-78
2022/08/18 09:13:33;;;;;;;3.13;2.05;;;23.70;99.90;;;;;;5077980;28;20119;-79
2022/08/18 09:16:09;;;;;;;3.92;2.63;;;23.80;99.90;;;;;;5078927;28;20031;-79
2022/08/18 09:18:53;;;;;;;3.72;2.00;;;24.00;99.90;;;;;;5080185;28;20384;-79
2022/08/18 09:21:18;;;;;;;3.75;1.40;;;24.40;99.90;;;;;;5072376;28;20032;-79
2022/08/18 09:23:47;;;;;;;2.10;1.10;;;25.00;99.90;;;;;;5059364;28;20036;-79
2022/08/18 09:26:22;;;;;;;4.53;2.77;;;24.80;99.90;;;;;;5061154;28;20085;-79
2022/08/18 09:29:33;;;;;;;3.10;2.40;;;24.20;99.90;;;;;;5071972;28;20484;-82
2022/08/18 09:32:17;;;;;;;4.10;1.90;;;23.50;99.90;;;;;;5054274;28;20037;-79
2022/08/18 09:35:05;;;;;;;1.77;0.93;;;23.40;99.90;;;;;;5053344;28;20035;-79
2022/08/18 09:43:38;;;;;;;4.47;2.65;;;23.30;99.90;;;;;;5072163;28;20058;-79
2022/08/18 09:46:05;;;;;;;2.13;1.90;;;23.10;99.90;;;;;;5087379;28;20044;-79
2022/08/18 09:48:36;;;;;;;2.15;1.50;;;23.40;99.90;;;;;;5070230;28;20049;-79
2022/08/18 09:51:15;;;;;;;2.53;1.55;;;24.30;99.90;;;;;;5056118;28;20036;-79
2022/08/18 09:53:52;;;;;;;2.15;1.75;;;24.70;99.90;;;;;;5078497;28;20242;-79
2022/08/18 09:56:47;;;;;;;1.10;0.70;;;24.90;99.90;;;;;;5076384;28;20032;-79
2022/08/18 09:59:33;;;;;;;1.90;0.90;;;25.10;99.90;;;;;;5063380;28;20129;-79
2022/08/18 10:02:00;;;;;;;1.85;0.70;;;25.10;99.90;;;;;;5070387;28;20024;-78
2022/08/18 10:04:27;;;;;;;2.10;1.10;;;24.80;99.90;;;;;;5056768;28;20032;-79
2022/08/18 10:06:53;;;;;;;1.80;1.13;;;24.50;99.90;;;;;;5069804;28;20408;-79
2022/08/18 10:09:34;;;;;;;1.90;0.90;;;24.60;99.90;;;;;;5056393;28;20487;-79
2022/08/18 10:12:16;;;;;;;4.05;2.08;;;24.70;99.90;;;;;;5078517;28;20427;-79
2022/08/18 10:15:16;;;;;;;3.33;1.20;;;23.90;99.90;;;;;;5069420;28;20086;-79
2022/08/18 10:18:09;;;;;;;3.10;2.13;;;23.80;99.90;;;;;;5070976;28;20036;-79
2022/08/18 10:20:53;;;;;;;3.05;1.80;;;24.30;99.90;;;;;;5074451;28;20020;-80
2022/08/18 10:23:55;;;;;;;2.50;2.30;;;24.30;99.90;;;;;;5063600;28;20031;-80
2022/08/18 10:26:30;;;;;;;3.78;1.20;;;24.00;99.90;;;;;;5071737;28;20040;-78
2022/08/18 10:29:30;;;;;;;3.08;1.00;;;23.80;99.90;;;;;;5079536;28;20032;-80
2022/08/18 10:31:56;;;;;;;2.67;1.10;;;23.80;99.90;;;;;;5074891;28;20016;-79
2022/08/18 10:34:48;;;;;;;1.70;0.73;;;23.80;99.90;;;;;;5077968;28;20378;-79
2022/08/18 10:37:41;;;;;;;1.40;0.80;;;24.10;99.90;;;;;;5071449;28;20043;-79
2022/08/18 10:40:11;;;;;;;1.50;0.70;;;23.90;99.90;;;;;;5055014;28;20052;-79
2022/08/18 10:42:48;;;;;;;1.88;0.77;;;24.10;99.90;;;;;;5073229;28;20124;-80
2022/08/18 10:45:34;;;;;;;1.25;0.77;;;23.90;99.90;;;;;;5070604;28;20060;-79
2022/08/18 10:48:03;;;;;;;1.67;0.70;;;23.90;99.90;;;;;;5066226;28;20066;-79
2022/08/18 10:50:37;;;;;;;1.88;0.73;;;24.20;99.90;;;;;;5076510;28;20529;-79
2022/08/18 10:53:26;;;;;;;1.05;0.70;;;24.40;99.90;;;;;;5080255;28;20409;-79
2022/08/18 10:56:02;;;;;;;1.40;0.60;;;24.80;99.90;;;;;;5058205;28;20029;-79
2022/08/18 10:58:45;;;;;;;2.03;0.60;;;24.80;99.90;;;;;;5064200;28;20298;-80
2022/08/18 11:01:36;;;;;;;1.30;0.60;;;24.90;99.90;;;;;;5077313;28;20047;-79
2022/08/18 11:04:06;;;;;;;2.10;0.70;;;25.20;99.90;;;;;;5078287;28;20418;-79
2022/08/18 11:06:42;;;;;;;1.30;0.70;;;25.30;99.90;;;;;;5074797;28;20060;-79
2022/08/18 11:09:09;;;;;;;1.65;0.60;;;25.30;99.90;;;;;;5077818;28;20043;-79
2022/08/18 11:11:41;;;;;;;1.70;0.70;;;25.00;99.90;;;;;;5082617;28;20036;-80
2022/08/18 11:14:30;;;;;;;2.05;0.95;;;25.00;99.90;;;;;;5082739;28;20537;-79
2022/08/18 11:17:07;;;;;;;1.98;0.80;;;25.10;99.90;;;;;;5057814;28;20058;-79
2022/08/18 11:19:41;;;;;;;1.55;0.77;;;25.10;99.90;;;;;;5078040;28;20029;-80
2022/08/18 11:22:30;;;;;;;2.05;0.80;;;24.90;99.90;;;;;;5078112;28;20035;-80
2022/08/18 11:24:58;;;;;;;1.42;0.70;;;24.70;99.90;;;;;;5064810;28;20502;-80
2022/08/18 11:27:26;;;;;;;2.72;0.80;;;24.70;99.90;;;;;;5082256;28;20040;-80
2022/08/18 11:29:53;;;;;;;1.42;0.60;;;24.40;99.90;;;;;;5070366;28;20016;-80
2022/08/18 11:32:40;;;;;;;1.63;0.80;;;24.50;99.90;;;;;;5076856;28;20094;-80
2022/08/18 11:35:10;;;;;;;1.13;0.70;;;24.40;99.90;;;;;;5076205;28;20028;-80
2022/08/18 11:37:45;;;;;;;1.25;0.70;;;24.50;99.90;;;;;;5069893;28;20016;-80
2022/08/18 11:40:25;;;;;;;3.33;0.70;;;24.60;99.90;;;;;;5077691;28;20056;-80
2022/08/18 11:43:02;;;;;;;1.67;0.80;;;24.90;99.90;;;;;;5078879;28;20036;-80
2022/08/18 11:45:35;;;;;;;3.10;1.67;;;24.60;99.90;;;;;;5069595;28;20041;-80
2022/08/18 11:48:35;;;;;;;2.50;1.13;;;24.40;99.90;;;;;;5067319;28;20028;-80
2022/08/18 11:51:16;;;;;;;1.80;0.90;;;24.50;99.90;;;;;;5059754;28;20492;-80
2022/08/18 11:53:47;;;;;;;2.30;0.90;;;24.80;99.90;;;;;;5079455;28;20033;-81
2022/08/18 11:56:19;;;;;;;2.85;0.90;;;25.00;99.90;;;;;;5065878;28;20166;-80
2022/08/18 11:59:03;;;;;;;1.50;0.77;;;25.20;99.90;;;;;;5077727;28;20162;-80
2022/08/18 12:01:45;;;;;;;1.67;0.90;;;25.70;99.90;;;;;;5078972;28;20047;-81
2022/08/18 12:04:38;;;;;;;2.45;0.80;;;26.20;99.90;;;;;;5072476;28;20471;-80
2022/08/18 12:07:07;;;;;;;1.38;0.63;;;26.10;99.90;;;;;;5071380;28;20047;-81
2022/08/18 12:09:45;;;;;;;1.60;0.60;;;26.00;99.90;;;;;;5074388;28;20082;-80
2022/08/18 12:12:14;;;;;;;1.85;1.00;;;26.00;99.90;;;;;;5071779;28;20045;-82
2022/08/18 12:14:57;;;;;;;1.63;0.80;;;25.90;99.90;;;;;;5073148;28;20128;-81
2022/08/18 12:17:25;;;;;;;1.60;0.60;;;26.20;99.90;;;;;;5052360;28;20618;-81
2022/08/18 12:19:51;;;;;;;1.60;0.63;;;26.20;99.90;;;;;;5061330;28;20032;-81
2022/08/18 12:22:23;;;;;;;2.88;0.80;;;26.20;99.90;;;;;;5073824;28;20039;-81
2022/08/18 12:24:49;;;;;;;2.65;0.70;;;26.00;99.90;;;;;;5055573;28;20037;-81
2022/08/18 12:27:19;;;;;;;1.27;0.60;;;26.30;99.90;;;;;;5073252;28;20039;-81
2022/08/18 12:29:45;;;;;;;1.63;0.60;;;26.40;99.90;;;;;;5078774;28;20035;-79
2022/08/18 12:32:12;;;;;;;2.15;0.63;;;26.40;99.90;;;;;;5072587;28;20056;-82
2022/08/18 12:34:37;;;;;;;2.85;0.60;;;26.20;99.90;;;;;;5064418;28;20096;-80
2022/08/18 12:37:06;;;;;;;1.42;0.50;;;25.90;99.90;;;;;;5061892;28;20032;-80
2022/08/18 12:39:32;;;;;;;1.00;0.60;;;26.10;99.90;;;;;;5072869;28;20052;-81
2022/08/18 12:41:58;;;;;;;1.92;0.70;;;26.30;99.90;;;;;;5075307;28;20296;-82
2022/08/18 12:44:24;;;;;;;2.67;0.80;;;25.70;99.90;;;;;;5059329;28;20025;-81
2022/08/18 12:46:50;;;;;;;2.58;0.60;;;25.50;99.90;;;;;;5064979;28;20040;-81
2022/08/18 12:49:22;;;;;;;1.65;0.50;;;25.90;99.90;;;;;;5080622;28;20240;-81
2022/08/18 12:51:48;;;;;;;1.88;0.75;;;25.80;99.90;;;;;;5037117;28;20560;-81
2022/08/18 12:54:13;;;;;;;2.97;0.77;;;25.80;99.90;;;;;;5090169;28;20149;-81
2022/08/18 12:56:41;;;;;;;1.90;0.60;;;25.40;99.90;;;;;;5063860;28;20055;-81
2022/08/18 12:59:08;;;;;;;1.55;0.60;;;25.70;99.90;;;;;;5086024;28;20052;-81
2022/08/18 13:01:36;;;;;;;1.58;0.50;;;26.10;99.90;;;;;;5074452;28;20086;-81
2022/08/18 13:04:02;;;;;;;1.35;0.50;;;26.40;99.90;;;;;;5056892;28;20129;-81
2022/08/18 13:06:28;;;;;;;1.73;0.50;;;26.40;99.90;;;;;;5062068;28;20075;-81
2022/08/18 13:08:54;;;;;;;2.88;0.70;;;25.90;99.90;;;;;;5074108;28;20089;-82
2022/08/18 13:11:22;;;;;;;2.05;0.60;;;25.60;99.90;;;;;;5060180;28;20536;-81
2022/08/18 13:13:48;;;;;;;1.13;0.40;;;25.50;99.90;;;;;;5079632;28;20040;-82
2022/08/18 13:16:14;;;;;;;2.40;0.70;;;25.70;99.90;;;;;;5070774;28;20054;-82
2022/08/18 13:18:43;;;;;;;1.60;0.60;;;25.40;99.90;;;;;;5076090;28;20036;-81
2022/08/18 13:21:11;;;;;;;1.42;0.60;;;25.40;99.90;;;;;;5072782;28;22229;-81
2022/08/18 13:23:38;;;;;;;2.03;0.80;;;25.50;99.90;;;;;;5074164;28;20028;-80
2022/08/18 13:26:06;;;;;;;2.00;0.90;;;25.40;99.90;;;;;;5061020;28;20047;-82
2022/08/18 13:28:34;;;;;;;1.23;0.68;;;25.20;99.90;;;;;;5058427;28;20525;-80